createdAt,value
2023-09-06T00:01:43.767Z,96147.56
2023-09-06T00:04:11.080Z,96151.25
2023-09-06T00:06:37.682Z,96153.56
2023-09-06T00:09:05.175Z,96152.13
2023-09-06T00:11:31.898Z,96145.81
2023-09-06T00:13:58.294Z,96143.78
2023-09-06T00:16:24.687Z,96144.00
2023-09-06T00:18:51.954Z,96141.97
2023-09-06T00:21:18.620Z,96143.94
2023-09-06T00:23:45.074Z,96143.75
2023-09-06T00:26:11.843Z,96155.00
2023-09-06T00:28:38.953Z,96156.44
2023-09-06T00:31:05.441Z,96155.03
2023-09-06T00:33:34.919Z,96150.16
2023-09-06T00:36:03.744Z,96161.63
2023-09-06T00:38:30.504Z,96156.53
2023-09-06T00:40:57.582Z,96159.03
2023-09-06T00:43:23.966Z,96163.31
2023-09-06T00:45:52.398Z,96154.34
2023-09-06T00:48:28.534Z,96153.97
2023-09-06T00:50:56.861Z,96137.03
2023-09-06T00:53:26.377Z,96122.50
2023-09-06T00:55:53.529Z,96126.16
2023-09-06T00:58:21.259Z,96119.38
2023-09-06T01:00:50.294Z,96129.38
2023-09-06T01:03:18.367Z,96129.78
2023-09-06T01:05:44.788Z,96139.38
2023-09-06T01:08:14.420Z,96135.53
2023-09-06T01:10:41.200Z,96139.84
2023-09-06T01:13:07.596Z,96144.97
2023-09-06T01:15:34.651Z,96155.22
2023-09-06T01:18:06.336Z,96156.44
2023-09-06T01:20:43.630Z,96149.13
2023-09-06T01:23:32.163Z,96135.44
2023-09-06T01:25:58.619Z,96140.56
2023-09-06T01:28:29.206Z,96129.56
2023-09-06T01:30:56.847Z,96126.25
2023-09-06T01:33:23.847Z,96139.53
2023-09-06T01:35:50.836Z,96140.13
2023-09-06T01:38:17.851Z,96136.06
2023-09-06T01:40:45.003Z,96128.34
2023-09-06T01:43:11.668Z,96125.09
2023-09-06T01:45:40.174Z,96129.16
2023-09-06T01:48:06.734Z,96121.22
2023-09-06T01:50:33.097Z,96117.13
2023-09-06T01:52:59.871Z,96114.50
2023-09-06T01:55:26.259Z,96125.34
2023-09-06T01:57:52.692Z,96122.31
2023-09-06T02:00:28.954Z,96112.72
2023-09-06T02:02:56.125Z,96113.72
2023-09-06T02:05:23.285Z,96115.97
2023-09-06T02:07:51.391Z,96103.56
2023-09-06T02:10:18.520Z,96101.13
2023-09-06T02:12:45.824Z,96100.91
2023-09-06T02:15:16.194Z,96093.78
2023-09-06T02:17:44.176Z,96094.16
2023-09-06T02:20:18.986Z,96093.38
2023-09-06T02:22:45.764Z,96097.22
2023-09-06T02:25:13.898Z,96106.00
2023-09-06T02:27:41.756Z,96099.06
2023-09-06T02:30:09.232Z,96102.16
2023-09-06T02:32:35.769Z,96110.50
2023-09-06T02:35:02.741Z,96109.66
2023-09-06T02:37:29.160Z,96114.56
2023-09-06T02:39:55.579Z,96115.59
2023-09-06T02:42:23.234Z,96120.69
2023-09-06T02:44:49.674Z,96116.63
2023-09-06T02:47:16.283Z,96124.97
2023-09-06T02:49:47.338Z,96120.09
2023-09-06T02:52:29.298Z,96120.28
2023-09-06T02:54:59.158Z,96126.00
2023-09-06T02:57:29.868Z,96122.31
2023-09-06T02:59:56.257Z,96124.16
2023-09-06T03:02:25.648Z,96126.00
2023-09-06T03:04:56.280Z,96123.97
2023-09-06T03:07:23.187Z,96127.44
2023-09-06T03:09:51.183Z,96129.25
2023-09-06T03:12:17.862Z,96135.16
2023-09-06T03:14:49.148Z,96130.47
2023-09-06T03:17:19.761Z,96138.22
2023-09-06T03:19:49.135Z,96138.81
2023-09-06T03:22:16.609Z,96153.72
2023-09-06T03:24:44.428Z,96140.66
2023-09-06T03:27:16.763Z,96145.94
2023-09-06T03:29:47.608Z,96141.69
2023-09-06T03:32:14.484Z,96147.78
2023-09-06T03:34:41.864Z,96147.16
2023-09-06T03:37:12.401Z,96152.88
2023-09-06T03:39:42.409Z,96147.16
2023-09-06T03:42:09.622Z,96144.13
2023-09-06T03:44:37.449Z,96155.72
2023-09-06T03:47:14.573Z,96150.44
2023-09-06T03:49:42.459Z,96150.44
2023-09-06T03:52:08.952Z,96144.94
2023-09-06T03:54:35.817Z,96145.13
2023-09-06T03:57:03.843Z,96147.78
2023-09-06T03:59:32.930Z,96143.50
2023-09-06T04:01:59.687Z,96150.00
2023-09-06T04:04:26.688Z,96151.00
2023-09-06T04:06:53.271Z,96147.53
2023-09-06T04:09:19.860Z,96157.38
2023-09-06T04:11:48.134Z,96149.16
2023-09-06T04:14:15.293Z,96152.81
2023-09-06T04:16:41.747Z,96154.84
2023-09-06T04:19:08.220Z,96156.69
2023-09-06T04:21:34.652Z,96158.50
2023-09-06T04:24:01.059Z,96160.94
2023-09-06T04:26:27.845Z,96166.03
2023-09-06T04:28:54.306Z,96163.16
2023-09-06T04:31:20.806Z,96164.00
2023-09-06T04:33:47.749Z,96170.50
2023-09-06T04:36:14.115Z,96165.41
2023-09-06T04:38:40.556Z,96161.31
2023-09-06T04:41:07.359Z,96174.72
2023-09-06T04:43:34.217Z,96162.53
2023-09-06T04:46:01.019Z,96168.19
2023-09-06T04:48:28.263Z,96172.72
2023-09-06T04:50:57.545Z,96170.69
2023-09-06T04:53:23.975Z,96173.13
2023-09-06T04:55:51.289Z,96173.34
2023-09-06T04:58:19.185Z,96177.22
2023-09-06T05:00:48.889Z,96171.09
2023-09-06T05:03:19.546Z,96172.13
2023-09-06T05:05:47.399Z,96178.44
2023-09-06T05:08:14.971Z,96171.06
2023-09-06T05:10:41.892Z,96172.50
2023-09-06T05:13:09.727Z,96172.31
2023-09-06T05:15:37.346Z,96173.53
2023-09-06T05:18:09.673Z,96179.66
2023-09-06T05:20:39.025Z,96180.91
2023-09-06T05:23:12.417Z,96188.25
2023-09-06T05:25:40.092Z,96191.13
2023-09-06T05:28:10.281Z,96188.25
2023-09-06T05:30:41.810Z,96186.25
2023-09-06T05:33:08.423Z,96187.50
2023-09-06T05:35:35.446Z,96182.63
2023-09-06T05:38:05.848Z,96178.38
2023-09-06T05:40:34.387Z,96181.41
2023-09-06T05:43:01.124Z,96176.31
2023-09-06T05:45:28.067Z,96170.59
2023-09-06T05:47:54.903Z,96175.91
2023-09-06T05:50:21.634Z,96169.59
2023-09-06T05:52:48.865Z,96173.66
2023-09-06T05:55:15.859Z,96176.94
2023-09-06T05:57:42.503Z,96174.44
2023-09-06T06:00:14.365Z,96173.22
2023-09-06T06:02:41.302Z,96175.41
2023-09-06T06:05:08.298Z,96179.63
2023-09-06T06:07:34.920Z,96181.66
2023-09-06T06:10:01.328Z,96180.09
2023-09-06T06:12:28.212Z,96182.44
2023-09-06T06:14:54.971Z,96181.84
2023-09-06T06:17:21.425Z,96196.81
2023-09-06T06:19:49.314Z,96217.88
2023-09-06T06:22:16.147Z,96273.22
2023-09-06T06:24:45.515Z,96302.72
2023-09-06T06:27:12.168Z,96330.59
2023-09-06T06:29:39.761Z,96374.47
2023-09-06T06:32:06.599Z,96390.63
2023-09-06T06:34:33.109Z,96410.84
2023-09-06T06:36:59.880Z,96433.66
2023-09-06T06:39:27.272Z,96453.16
2023-09-06T06:41:53.636Z,96464.97
2023-09-06T06:44:20.454Z,96484.13
2023-09-06T06:46:46.922Z,96489.59
2023-09-06T06:49:13.326Z,96519.81
2023-09-06T06:51:43.575Z,96518.22
2023-09-06T06:54:11.747Z,96526.09
2023-09-06T06:56:38.914Z,96543.34
2023-09-06T06:59:05.910Z,96554.94
2023-09-06T07:01:32.554Z,96562.81
2023-09-06T07:03:59.612Z,96572.81
2023-09-06T07:06:27.542Z,96567.84
2023-09-06T07:08:55.705Z,96574.53
2023-09-06T07:11:22.447Z,96577.47
2023-09-06T07:13:50.625Z,96581.66
2023-09-06T07:16:19.299Z,96592.69
2023-09-06T07:18:47.473Z,96590.34
2023-09-06T07:21:15.421Z,96597.28
2023-09-06T07:23:41.910Z,96594.88
2023-09-06T07:26:08.601Z,96591.75
2023-09-06T07:28:45.987Z,96584.72
2023-09-06T07:31:13.721Z,96590.81
2023-09-06T07:33:40.101Z,96583.72
2023-09-06T07:36:07.530Z,96595.34
2023-09-06T07:38:34.367Z,96589.31
2023-09-06T07:41:02.339Z,96593.13
2023-09-06T07:43:30.065Z,96584.00
2023-09-06T07:45:57.831Z,96588.84
2023-09-06T07:48:26.673Z,96598.84
2023-09-06T07:50:54.071Z,96587.84
2023-09-06T07:53:20.610Z,96595.88
2023-09-06T07:55:47.619Z,96604.81
2023-09-06T07:58:15.477Z,96604.22
2023-09-06T08:00:42.616Z,96601.50
2023-09-06T08:03:09.506Z,96596.25
2023-09-06T08:05:36.803Z,96611.75
2023-09-06T08:08:05.712Z,96599.75
2023-09-06T08:10:32.190Z,96599.59
2023-09-06T08:12:58.997Z,96602.53
2023-09-06T08:15:25.507Z,96596.91
2023-09-06T08:17:52.453Z,96607.22
2023-09-06T08:20:19.206Z,96616.09
2023-09-06T08:22:46.425Z,96607.66
2023-09-06T08:25:18.297Z,96611.91
2023-09-06T08:27:45.288Z,96609.66
2023-09-06T08:30:13.961Z,96608.81
2023-09-06T08:32:42.191Z,96615.47
2023-09-06T08:35:10.246Z,96615.34
2023-09-06T08:37:36.944Z,96614.91
2023-09-06T08:40:06.713Z,96613.97
2023-09-06T08:42:37.415Z,96623.59
2023-09-06T08:45:06.779Z,96615.13
2023-09-06T08:47:34.098Z,96619.66
2023-09-06T08:50:01.107Z,96621.03
2023-09-06T08:52:29.072Z,96627.56
2023-09-06T08:54:55.560Z,96623.16
2023-09-06T08:57:23.252Z,96619.03
2023-09-06T08:59:50.153Z,96613.34
2023-09-06T09:02:17.283Z,96623.34
2023-09-06T09:04:44.373Z,96624.63
2023-09-06T09:07:12.342Z,96617.41
2023-09-06T09:10:03.132Z,96617.38
2023-09-06T09:12:30.530Z,96615.09
2023-09-06T09:15:04.479Z,96611.38
2023-09-06T09:17:53.190Z,96612.66
2023-09-06T09:20:23.778Z,96622.28
2023-09-06T09:22:51.967Z,96608.66
2023-09-06T09:25:24.276Z,96618.78
2023-09-06T09:27:59.527Z,96612.84
2023-09-06T09:30:28.869Z,96618.28
2023-09-06T09:33:02.491Z,96612.59
2023-09-06T09:35:29.347Z,96605.38
2023-09-06T09:37:57.633Z,96610.63
2023-09-06T09:40:52.343Z,96605.94
2023-09-06T09:43:25.547Z,96621.94
2023-09-06T09:45:52.404Z,96605.34
2023-09-06T09:48:21.226Z,96619.06
2023-09-06T09:50:51.466Z,96614.34
2023-09-06T09:53:24.553Z,96605.84
2023-09-06T09:55:54.807Z,96615.44
2023-09-06T09:58:21.910Z,96606.00
2023-09-06T10:00:52.286Z,96611.84
2023-09-06T10:03:19.903Z,96609.66
2023-09-06T10:05:48.793Z,96602.03
2023-09-06T10:08:18.885Z,96604.03
2023-09-06T10:10:45.814Z,96599.44
2023-09-06T10:13:15.838Z,96599.66
2023-09-06T10:15:44.945Z,96593.06
2023-09-06T10:18:12.347Z,96588.88
2023-09-06T10:20:40.370Z,96599.97
2023-09-06T10:23:08.652Z,96598.28
2023-09-06T10:25:41.013Z,96586.72
2023-09-06T10:28:08.566Z,96591.25
2023-09-06T10:30:45.254Z,96584.72
2023-09-06T10:33:38.096Z,96572.47
2023-09-06T10:36:10.066Z,96588.09
2023-09-06T10:38:52.284Z,96578.31
2023-09-06T10:41:19.967Z,96586.06
2023-09-06T10:43:57.000Z,96585.34
2023-09-06T10:46:25.802Z,96601.22
2023-09-06T10:49:22.451Z,96585.31
2023-09-06T10:51:55.861Z,96584.56
2023-09-06T10:54:35.643Z,96582.50
2023-09-06T10:57:06.315Z,96570.03
2023-09-06T10:59:40.195Z,96577.03
2023-09-06T11:02:10.760Z,96581.59
2023-09-06T11:04:37.761Z,96569.91
2023-09-06T11:07:11.308Z,96574.38
2023-09-06T11:09:51.754Z,96565.00
2023-09-06T11:12:18.504Z,96573.91
2023-09-06T11:14:48.881Z,96563.94
2023-09-06T11:17:23.302Z,96560.94
2023-09-06T11:19:49.979Z,96552.78
2023-09-06T11:22:17.691Z,96549.25
2023-09-06T11:24:44.852Z,96556.31
2023-09-06T11:27:18.643Z,96560.06
2023-09-06T11:29:45.142Z,96554.47
2023-09-06T11:32:15.174Z,96557.59
2023-09-06T11:34:44.907Z,96557.16
2023-09-06T11:37:16.178Z,96543.00
2023-09-06T11:39:44.656Z,96530.31
2023-09-06T11:42:15.604Z,96545.63
2023-09-06T11:44:49.378Z,96537.44
2023-09-06T11:47:17.612Z,96549.38
2023-09-06T11:49:46.714Z,96528.56
2023-09-06T11:52:15.544Z,96542.06
2023-09-06T11:54:43.804Z,96546.88
2023-09-06T11:57:32.491Z,96539.06
2023-09-06T11:59:59.001Z,96531.47
2023-09-06T12:02:28.922Z,96541.50
2023-09-06T12:05:12.689Z,96538.38
2023-09-06T12:07:39.190Z,96535.28
2023-09-06T12:10:08.215Z,96536.03
2023-09-06T12:12:41.989Z,96517.81
2023-09-06T12:15:15.782Z,96513.44
2023-09-06T12:17:43.803Z,96521.75
2023-09-06T12:20:17.610Z,96520.75
2023-09-06T12:22:44.253Z,96514.78
2023-09-06T12:25:10.942Z,96521.91
2023-09-06T12:27:37.709Z,96545.25
2023-09-06T12:30:04.673Z,96535.44
2023-09-06T12:32:32.794Z,96505.09
2023-09-06T12:35:00.621Z,96523.13
2023-09-06T12:37:27.178Z,96541.84
2023-09-06T12:39:53.628Z,96537.03
2023-09-06T12:42:20.471Z,96536.03
2023-09-06T12:44:46.947Z,96549.28
2023-09-06T12:47:13.365Z,96543.16
2023-09-06T12:49:40.144Z,96538.97
2023-09-06T12:52:06.677Z,96537.66
2023-09-06T12:54:33.064Z,96535.47
2023-09-06T12:56:59.891Z,96524.75
2023-09-06T12:59:26.280Z,96527.13
2023-09-06T13:01:52.865Z,96520.91
2023-09-06T13:04:19.794Z,96524.09
2023-09-06T13:06:46.913Z,96517.44
2023-09-06T13:09:14.811Z,96504.38
2023-09-06T13:11:41.765Z,96509.63
2023-09-06T13:14:08.173Z,96499.47
2023-09-06T13:16:34.631Z,96500.03
2023-09-06T13:19:01.216Z,96501.44
2023-09-06T13:21:27.802Z,96492.59
2023-09-06T13:23:54.239Z,96490.78
2023-09-06T13:26:20.799Z,96487.81
2023-09-06T13:28:47.332Z,96497.09
2023-09-06T13:31:14.051Z,96485.78
2023-09-06T13:33:41.044Z,96487.97
2023-09-06T13:36:07.660Z,96498.69
2023-09-06T13:38:34.145Z,96493.78
2023-09-06T13:41:01.002Z,96496.50
2023-09-06T13:43:27.472Z,96495.69
2023-09-06T13:45:54.535Z,96484.28
2023-09-06T13:48:21.202Z,96472.44
2023-09-06T13:50:47.779Z,96469.56
2023-09-06T13:53:14.140Z,96486.91
2023-09-06T13:55:40.736Z,96475.94
2023-09-06T13:58:09.902Z,96473.38
2023-09-06T14:00:36.412Z,96480.84
2023-09-06T14:03:03.359Z,96482.97
2023-09-06T14:05:30.385Z,96465.91
2023-09-06T14:07:56.777Z,96473.94
2023-09-06T14:10:23.217Z,96471.78
2023-09-06T14:12:49.574Z,96472.28
2023-09-06T14:15:16.116Z,96469.44
2023-09-06T14:17:42.706Z,96470.56
2023-09-06T14:20:10.645Z,96465.97
2023-09-06T14:22:37.055Z,96474.47
2023-09-06T14:25:03.838Z,96470.59
2023-09-06T14:27:31.107Z,96484.06
2023-09-06T14:29:58.998Z,96468.16
2023-09-06T14:32:25.668Z,96466.25
2023-09-06T14:34:52.734Z,96468.41
2023-09-06T14:37:19.268Z,96468.69
2023-09-06T14:39:46.006Z,96461.50
2023-09-06T14:42:12.361Z,96456.88
2023-09-06T14:44:38.812Z,96465.72
2023-09-06T14:47:05.520Z,96454.94
2023-09-06T14:49:32.021Z,96462.16
2023-09-06T14:52:01.313Z,96462.59
2023-09-06T14:54:28.993Z,96454.00
2023-09-06T14:56:58.970Z,96449.78
2023-09-06T14:59:25.410Z,96450.88
2023-09-06T15:01:52.316Z,96458.38
2023-09-06T15:04:18.916Z,96443.16
2023-09-06T15:06:57.934Z,96455.03
2023-09-06T15:09:26.528Z,96454.88
2023-09-06T15:11:53.865Z,96442.34
2023-09-06T15:14:20.671Z,96446.13
2023-09-06T15:16:47.804Z,96440.25
2023-09-06T15:19:14.677Z,96440.44
2023-09-06T15:21:41.251Z,96444.69
2023-09-06T15:24:08.968Z,96435.59
2023-09-06T15:26:35.439Z,96439.56
2023-09-06T15:29:01.793Z,96430.81
2023-09-06T15:31:30.773Z,96433.47
2023-09-06T15:33:57.538Z,96423.50
2023-09-06T15:36:26.740Z,96426.81
2023-09-06T15:38:53.576Z,96424.53
2023-09-06T15:41:20.009Z,96412.44
2023-09-06T15:43:46.429Z,96418.09
2023-09-06T15:46:13.748Z,96405.91
2023-09-06T15:48:40.267Z,96411.44
2023-09-06T15:51:06.738Z,96415.16
2023-09-06T15:53:33.636Z,96407.22
2023-09-06T15:56:00.208Z,96411.25
2023-09-06T15:58:28.459Z,96408.00
2023-09-06T16:00:55.226Z,96415.91
2023-09-06T16:03:21.729Z,96413.13
2023-09-06T16:05:48.215Z,96421.66
2023-09-06T16:08:15.154Z,96408.97
2023-09-06T16:10:41.509Z,96407.34
2023-09-06T16:13:07.881Z,96409.59
2023-09-06T16:15:34.723Z,96408.97
2023-09-06T16:18:01.264Z,96400.44
2023-09-06T16:20:27.798Z,96404.88
2023-09-06T16:22:54.598Z,96396.88
2023-09-06T16:25:20.984Z,96395.06
2023-09-06T16:27:47.429Z,96400.06
2023-09-06T16:30:14.865Z,96389.25
2023-09-06T16:32:41.585Z,96398.22
2023-09-06T16:35:08.392Z,96389.38
2023-09-06T16:37:36.684Z,96403.06
2023-09-06T16:40:03.211Z,96399.41
2023-09-06T16:42:29.633Z,96389.13
2023-09-06T16:44:56.470Z,96397.00
2023-09-06T16:47:24.267Z,96403.44
2023-09-06T16:49:52.477Z,96396.31
2023-09-06T16:52:19.586Z,96398.38
2023-09-06T16:54:46.045Z,96398.44
2023-09-06T16:57:12.433Z,96405.22
2023-09-06T16:59:39.251Z,96400.94
2023-09-06T17:02:05.831Z,96407.81
2023-09-06T17:04:32.405Z,96398.34
2023-09-06T17:06:58.913Z,96403.47
2023-09-06T17:09:25.275Z,96395.72
2023-09-06T17:11:51.661Z,96395.06
2023-09-06T17:14:18.385Z,96400.56
2023-09-06T17:16:44.931Z,96398.16
2023-09-06T17:19:11.486Z,96405.00
2023-09-06T17:21:40.357Z,96395.88
2023-09-06T17:24:08.376Z,96395.53
2023-09-06T17:26:37.345Z,96408.06
2023-09-06T17:29:07.555Z,96403.25
2023-09-06T17:31:35.343Z,96406.28
2023-09-06T17:34:02.112Z,96399.56
2023-09-06T17:36:28.912Z,96400.75
2023-09-06T17:38:55.376Z,96395.13
2023-09-06T17:41:24.640Z,96400.66
2023-09-06T17:43:51.922Z,96398.31
2023-09-06T17:46:25.886Z,96395.72
2023-09-06T17:48:53.940Z,96389.84
2023-09-06T17:51:20.879Z,96392.63
2023-09-06T17:53:49.215Z,96391.31
2023-09-06T17:56:20.744Z,96387.84
2023-09-06T17:58:51.005Z,96389.72
2023-09-06T18:01:19.961Z,96387.28
2023-09-06T18:03:53.419Z,96394.81
2023-09-06T18:06:25.411Z,96389.69
2023-09-06T18:08:55.903Z,96384.03
2023-09-06T18:11:22.986Z,96396.97
2023-09-06T18:13:49.936Z,96389.41
2023-09-06T18:16:18.087Z,96393.13
2023-09-06T18:18:45.229Z,96392.34
2023-09-06T18:21:14.582Z,96395.78
2023-09-06T18:23:41.608Z,96401.69
2023-09-06T18:26:09.123Z,96397.28
2023-09-06T18:28:35.852Z,96401.53
2023-09-06T18:31:03.160Z,96399.75
2023-09-06T18:33:29.693Z,96395.06
2023-09-06T18:35:56.545Z,96397.34
2023-09-06T18:38:24.741Z,96388.06
2023-09-06T18:40:54.350Z,96375.78
2023-09-06T18:43:22.883Z,96373.72
2023-09-06T18:45:50.193Z,96357.78
2023-09-06T18:48:23.324Z,96358.19
2023-09-06T18:50:50.970Z,96352.34
2023-09-06T18:53:17.768Z,96346.97
2023-09-06T18:55:47.982Z,96346.78
2023-09-06T18:58:18.944Z,96336.06
2023-09-06T19:00:45.804Z,96333.03
2023-09-06T19:03:15.540Z,96336.38
2023-09-06T19:05:43.510Z,96326.53
2023-09-06T19:08:12.981Z,96318.88
2023-09-06T19:10:41.267Z,96315.25
2023-09-06T19:13:08.877Z,96307.31
2023-09-06T19:15:35.236Z,96298.38
2023-09-06T19:18:01.982Z,96297.66
2023-09-06T19:20:28.748Z,96289.88
2023-09-06T19:22:55.360Z,96287.84
2023-09-06T19:25:25.947Z,96282.81
2023-09-06T19:27:52.954Z,96290.78
2023-09-06T19:30:19.680Z,96287.06
2023-09-06T19:32:46.097Z,96281.34
2023-09-06T19:35:12.837Z,96281.34
2023-09-06T19:37:39.627Z,96269.56
2023-09-06T19:40:06.766Z,96272.50
2023-09-06T19:42:35.089Z,96272.88
2023-09-06T19:45:02.206Z,96268.66
2023-09-06T19:47:29.209Z,96259.25
2023-09-06T19:49:56.938Z,96257.28
2023-09-06T19:52:23.668Z,96250.00
2023-09-06T19:54:50.533Z,96248.84
2023-09-06T19:57:17.118Z,96250.97
2023-09-06T19:59:44.307Z,96244.94
2023-09-06T20:02:10.797Z,96242.84
2023-09-06T20:04:37.839Z,96238.69
2023-09-06T20:07:05.047Z,96233.97
2023-09-06T20:09:32.069Z,96233.22
2023-09-06T20:11:59.450Z,96219.06
2023-09-06T20:14:28.721Z,96219.53
2023-09-06T20:16:57.084Z,96217.13
2023-09-06T20:19:24.844Z,96203.91
2023-09-06T20:21:51.382Z,96196.44
2023-09-06T20:24:18.165Z,96187.50
2023-09-06T20:26:44.824Z,96195.91
2023-09-06T20:29:11.781Z,96192.09
2023-09-06T20:31:38.435Z,96188.63
2023-09-06T20:34:05.623Z,96186.25
2023-09-06T20:36:34.091Z,96189.69
2023-09-06T20:39:00.959Z,96189.03
2023-09-06T20:41:27.551Z,96182.28
2023-09-06T20:43:54.045Z,96175.56
2023-09-06T20:46:20.905Z,96181.72
2023-09-06T20:48:47.608Z,96176.47
2023-09-06T20:51:17.320Z,96172.91
2023-09-06T20:53:44.469Z,96167.56
2023-09-06T20:56:12.199Z,96167.09
2023-09-06T20:58:39.141Z,96167.09
2023-09-06T21:01:16.559Z,96181.63
2023-09-06T21:03:43.806Z,96176.75
2023-09-06T21:06:11.952Z,96178.50
2023-09-06T21:08:38.865Z,96177.44
2023-09-06T21:11:05.622Z,96180.94
2023-09-06T21:13:33.639Z,96183.63
2023-09-06T21:16:03.236Z,96183.06
2023-09-06T21:18:31.308Z,96184.00
2023-09-06T21:20:58.696Z,96173.06
2023-09-06T21:23:25.454Z,96175.16
2023-09-06T21:25:52.365Z,96174.78
2023-09-06T21:28:18.878Z,96177.59
2023-09-06T21:30:48.795Z,96175.63
2023-09-06T21:33:16.122Z,96171.09
2023-09-06T21:35:44.517Z,96174.34
2023-09-06T21:38:12.285Z,96169.59
2023-09-06T21:40:42.840Z,96165.44
2023-09-06T21:43:17.560Z,96165.88
2023-09-06T21:45:45.250Z,96161.44
2023-09-06T21:48:12.308Z,96163.66
2023-09-06T21:50:40.882Z,96166.53
2023-09-06T21:53:08.144Z,96163.81
2023-09-06T21:55:34.778Z,96157.19
2023-09-06T21:58:09.439Z,96150.34
2023-09-06T22:00:36.607Z,96147.91
2023-09-06T22:03:03.713Z,96154.59
2023-09-06T22:05:30.181Z,96138.84
2023-09-06T22:07:56.649Z,96129.91
2023-09-06T22:10:23.508Z,96127.69
2023-09-06T22:12:50.013Z,96122.13
2023-09-06T22:15:16.750Z,96120.75
2023-09-06T22:17:43.535Z,96120.38
2023-09-06T22:20:10.957Z,96116.34
2023-09-06T22:22:37.540Z,96107.72
2023-09-06T22:25:06.016Z,96102.28
2023-09-06T22:27:33.298Z,96096.72
2023-09-06T22:29:59.958Z,96110.63
2023-09-06T22:32:27.174Z,96096.03
2023-09-06T22:34:53.782Z,96100.44
2023-09-06T22:37:20.602Z,96107.28
2023-09-06T22:39:47.191Z,96109.13
2023-09-06T22:42:13.804Z,96110.31
2023-09-06T22:44:40.725Z,96110.28
2023-09-06T22:47:08.932Z,96112.09
2023-09-06T22:49:38.625Z,96116.25
2023-09-06T22:52:06.798Z,96115.63
2023-09-06T22:54:34.311Z,96109.75
2023-09-06T22:57:00.712Z,96107.19
2023-09-06T22:59:27.941Z,96100.75
2023-09-06T23:01:55.153Z,96104.91
2023-09-06T23:04:22.064Z,96108.59
2023-09-06T23:06:48.965Z,96098.84
2023-09-06T23:09:19.795Z,96098.84
2023-09-06T23:11:48.142Z,96100.47
2023-09-06T23:14:18.281Z,96099.19
2023-09-06T23:16:49.196Z,96089.81
2023-09-06T23:19:28.774Z,96087.03
2023-09-06T23:22:00.150Z,96085.97
2023-09-06T23:24:28.764Z,96088.78
2023-09-06T23:27:00.694Z,96082.56
2023-09-06T23:29:35.764Z,96081.97
2023-09-06T23:32:06.287Z,96087.22
2023-09-06T23:34:35.170Z,96089.72
2023-09-06T23:37:05.026Z,96088.63
2023-09-06T23:39:34.129Z,96087.22
2023-09-06T23:42:10.402Z,96086.38
2023-09-06T23:44:39.153Z,96088.94
2023-09-06T23:47:07.471Z,96092.63
2023-09-06T23:49:36.123Z,96085.97
2023-09-06T23:52:03.148Z,96093.22
2023-09-06T23:54:40.701Z,96092.81
2023-09-06T23:57:13.644Z,96087.41
2023-09-06T23:59:40.012Z,96084.50
